createdAt,value
2022-09-03T00:00:19.480Z,2.90
2022-09-03T00:06:17.718Z,2.50
2022-09-03T00:11:27.380Z,2.70
2022-09-03T00:16:59.485Z,2.30
2022-09-03T00:22:29.937Z,2.40
2022-09-03T00:27:37.201Z,2.20
2022-09-03T00:32:58.827Z,2.50
2022-09-03T00:38:02.070Z,2.70
2022-09-03T00:43:28.794Z,2.20
2022-09-03T00:48:41.801Z,2.40
2022-09-03T00:54:17.322Z,2.60
2022-09-03T00:59:41.460Z,2.50
2022-09-03T01:05:05.034Z,2.70
2022-09-03T01:10:30.836Z,2.70
2022-09-03T01:15:59.868Z,2.80
2022-09-03T01:21:15.029Z,3.20
2022-09-03T01:26:23.642Z,4.10
2022-09-03T01:31:39.042Z,3.00
2022-09-03T01:36:46.926Z,2.90
2022-09-03T01:42:20.575Z,2.60
2022-09-03T01:47:50.478Z,2.20
2022-09-03T01:53:13.174Z,2.10
2022-09-03T01:58:33.513Z,2.10
2022-09-03T02:03:41.506Z,1.90
2022-09-03T02:08:44.854Z,1.90
2022-09-03T02:13:52.985Z,2.20
2022-09-03T02:19:05.915Z,1.80
2022-09-03T02:24:09.495Z,2.00
2022-09-03T02:29:13.594Z,1.80
2022-09-03T02:34:16.442Z,1.80
2022-09-03T02:39:19.671Z,1.90
2022-09-03T02:44:31.636Z,2.00
2022-09-03T02:49:34.968Z,1.80
2022-09-03T02:54:41.973Z,1.70
2022-09-03T03:04:49.322Z,1.70
2022-09-03T03:09:52.481Z,1.60
2022-09-03T03:14:56.285Z,1.70
2022-09-03T03:19:59.081Z,3.20
2022-09-03T03:25:01.977Z,3.60
2022-09-03T03:30:05.339Z,2.60
2022-09-03T03:35:08.406Z,2.70
2022-09-03T03:40:11.974Z,2.60
2022-09-03T03:45:14.928Z,2.10
2022-09-03T03:50:17.940Z,2.20
2022-09-03T03:55:21.962Z,1.70
2022-09-03T04:00:24.872Z,1.60
2022-09-03T04:05:27.653Z,2.20
2022-09-03T04:10:37.447Z,1.70
2022-09-03T04:15:41.087Z,2.00
2022-09-03T04:20:44.134Z,1.70
2022-09-03T04:25:53.195Z,1.90
2022-09-03T04:31:04.531Z,1.80
2022-09-03T04:36:12.225Z,1.90
2022-09-03T04:41:18.022Z,1.50
2022-09-03T04:46:23.576Z,1.80
2022-09-03T04:51:28.189Z,1.60
2022-09-03T04:56:34.111Z,1.80
2022-09-03T05:01:39.359Z,1.90
2022-09-03T05:06:43.641Z,1.60
2022-09-03T05:11:47.005Z,1.60
2022-09-03T05:16:53.076Z,1.70
2022-09-03T05:21:56.150Z,1.70
2022-09-03T05:26:59.108Z,1.50
2022-09-03T05:32:03.181Z,1.40
2022-09-03T05:37:06.055Z,1.40
2022-09-03T05:42:09.153Z,4.30
2022-09-03T05:47:12.084Z,2.50
2022-09-03T05:52:16.955Z,3.00
2022-09-03T05:57:19.797Z,1.40
2022-09-03T06:02:22.975Z,1.70
2022-09-03T06:07:27.668Z,1.70
2022-09-03T06:12:30.538Z,1.80
2022-09-03T06:17:33.480Z,1.30
2022-09-03T06:22:36.407Z,1.20
2022-09-03T06:27:39.256Z,1.70
2022-09-03T06:32:46.019Z,1.70
2022-09-03T06:37:49.256Z,1.30
2022-09-03T06:43:02.743Z,1.60
2022-09-03T06:48:06.068Z,1.70
2022-09-03T06:53:09.429Z,1.70
2022-09-03T06:58:12.304Z,1.50
2022-09-03T07:03:18.061Z,2.00
2022-09-03T07:08:20.879Z,0.90
2022-09-03T07:13:26.164Z,1.40
2022-09-03T07:18:29.008Z,1.10
2022-09-03T07:23:33.567Z,1.10
2022-09-03T07:28:38.498Z,0.80
2022-09-03T07:33:42.532Z,1.00
2022-09-03T07:38:45.781Z,0.90
2022-09-03T07:43:49.254Z,1.00
2022-09-03T07:48:58.176Z,1.00
2022-09-03T07:54:04.059Z,0.90
2022-09-03T07:59:07.761Z,1.10
2022-09-03T08:04:12.010Z,0.80
2022-09-03T08:09:15.024Z,0.80
2022-09-03T08:14:19.202Z,1.00
2022-09-03T08:19:23.520Z,1.00
2022-09-03T08:24:26.556Z,0.90
2022-09-03T08:29:29.355Z,0.80
2022-09-03T08:34:32.708Z,1.10
2022-09-03T08:39:35.974Z,0.80
2022-09-03T08:44:50.030Z,1.30
2022-09-03T08:50:18.326Z,0.80
2022-09-03T08:55:34.490Z,0.70
2022-09-03T09:00:40.200Z,0.90
2022-09-03T09:06:07.291Z,0.90
2022-09-03T09:11:48.801Z,1.00
2022-09-03T09:16:57.536Z,0.90
2022-09-03T09:22:38.560Z,0.60
2022-09-03T09:27:55.266Z,0.80
2022-09-03T09:33:00.633Z,0.50
2022-09-03T09:38:03.874Z,0.60
2022-09-03T09:43:12.385Z,0.50
2022-09-03T09:48:33.725Z,0.90
2022-09-03T09:53:36.914Z,0.50
2022-09-03T09:58:40.173Z,0.80
2022-09-03T10:03:58.156Z,0.40
2022-09-03T10:09:12.708Z,0.60
2022-09-03T10:14:24.229Z,0.60
2022-09-03T10:20:14.764Z,0.60
2022-09-03T10:25:21.296Z,0.70
2022-09-03T10:30:25.478Z,0.70
2022-09-03T10:35:42.521Z,0.50
2022-09-03T10:41:03.391Z,0.50
2022-09-03T10:46:29.007Z,0.60
2022-09-03T10:52:10.034Z,0.90
2022-09-03T10:57:25.102Z,0.70
2022-09-03T11:03:00.320Z,0.80
2022-09-03T11:08:10.149Z,0.80
2022-09-03T11:13:18.963Z,0.60
2022-09-03T11:18:27.215Z,0.80
2022-09-03T11:23:36.457Z,0.70
2022-09-03T11:28:52.131Z,0.70
2022-09-03T11:34:06.442Z,0.90
2022-09-03T11:44:22.123Z,0.90
2022-09-03T11:49:33.663Z,0.80
2022-09-03T11:54:47.148Z,0.50
2022-09-03T11:59:50.409Z,0.50
2022-09-03T12:05:19.640Z,0.80
2022-09-03T12:10:41.855Z,0.70
2022-09-03T12:16:08.641Z,0.60
2022-09-03T12:21:11.764Z,0.80
2022-09-03T12:26:20.646Z,0.90
2022-09-03T12:31:31.242Z,1.30
2022-09-03T12:36:41.608Z,1.10
2022-09-03T12:42:05.839Z,0.90
2022-09-03T12:52:45.265Z,0.90
2022-09-03T12:58:02.192Z,1.00
2022-09-03T13:03:16.501Z,1.00
2022-09-03T13:08:23.813Z,1.00
2022-09-03T13:13:30.143Z,1.00
2022-09-03T13:24:06.631Z,0.90
2022-09-03T13:29:15.391Z,1.20
2022-09-03T13:34:38.419Z,1.00
2022-09-03T13:39:51.338Z,0.70
2022-09-03T13:45:06.355Z,0.80
2022-09-03T13:50:24.381Z,1.00
2022-09-03T13:55:43.588Z,0.80
2022-09-03T14:00:54.311Z,0.50
2022-09-03T14:06:08.982Z,0.90
2022-09-03T14:11:28.063Z,0.70
2022-09-03T14:17:00.240Z,0.60
2022-09-03T14:22:49.820Z,0.80
2022-09-03T14:27:54.788Z,1.00
2022-09-03T14:33:24.655Z,0.80
2022-09-03T14:38:27.563Z,0.70
2022-09-03T14:43:51.770Z,0.80
2022-09-03T14:49:14.684Z,0.80
2022-09-03T14:54:36.300Z,0.70
2022-09-03T15:00:01.452Z,0.80
2022-09-03T15:05:31.155Z,0.70
2022-09-03T15:10:46.990Z,0.80
2022-09-03T15:16:01.773Z,0.50
2022-09-03T15:21:29.448Z,1.10
2022-09-03T15:26:41.886Z,0.90
2022-09-03T15:32:23.341Z,0.60
2022-09-03T15:37:34.661Z,0.80
2022-09-03T15:42:38.676Z,0.90
2022-09-03T15:47:51.910Z,0.90
2022-09-03T15:52:55.119Z,0.90
2022-09-03T15:58:19.491Z,0.80
2022-09-03T16:03:56.191Z,1.00
2022-09-03T16:09:09.760Z,0.90
2022-09-03T16:14:22.251Z,0.90
2022-09-03T16:19:38.417Z,0.90
2022-09-03T16:24:51.593Z,0.80
2022-09-03T16:29:59.706Z,1.10
2022-09-03T16:35:09.365Z,0.90
2022-09-03T16:40:37.116Z,1.20
2022-09-03T16:45:43.105Z,1.20
2022-09-03T16:51:04.509Z,1.20
2022-09-03T16:56:39.719Z,1.40
2022-09-03T17:01:52.765Z,1.30
2022-09-03T17:07:04.026Z,1.10
2022-09-03T17:12:28.196Z,1.30
2022-09-03T17:17:44.213Z,1.40
2022-09-03T17:22:56.136Z,1.30
2022-09-03T17:28:21.448Z,1.30
2022-09-03T17:33:35.731Z,1.60
2022-09-03T17:39:06.957Z,1.60
2022-09-03T17:44:27.309Z,1.60
2022-09-03T17:49:41.483Z,1.60
2022-09-03T17:54:49.609Z,1.70
2022-09-03T18:00:05.591Z,2.00
2022-09-03T18:05:24.167Z,1.80
2022-09-03T18:10:42.067Z,1.60
2022-09-03T18:15:51.992Z,1.70
2022-09-03T18:21:27.766Z,1.50
2022-09-03T18:26:56.053Z,1.30
2022-09-03T18:32:18.923Z,1.20
2022-09-03T18:37:44.156Z,1.70
2022-09-03T18:43:24.399Z,1.70
2022-09-03T18:49:07.977Z,1.60
2022-09-03T18:55:08.651Z,1.80
2022-09-03T19:00:34.901Z,1.60
2022-09-03T19:06:34.975Z,2.00
2022-09-03T19:12:15.223Z,1.80
2022-09-03T19:17:45.548Z,1.70
2022-09-03T19:23:06.734Z,2.30
2022-09-03T19:28:42.279Z,2.00
2022-09-03T19:34:10.795Z,2.00
2022-09-03T19:39:43.982Z,2.40
2022-09-03T19:45:29.143Z,2.40
2022-09-03T19:50:56.353Z,2.00
2022-09-03T19:56:22.488Z,2.40
2022-09-03T20:01:51.714Z,2.10
2022-09-03T20:07:16.249Z,1.60
2022-09-03T20:12:23.343Z,2.70
2022-09-03T20:17:49.189Z,2.30
2022-09-03T20:23:03.333Z,3.00
2022-09-03T20:28:33.811Z,2.60
2022-09-03T20:33:57.911Z,2.60
2022-09-03T20:39:15.754Z,2.70
2022-09-03T20:44:26.216Z,2.50
2022-09-03T20:50:04.423Z,2.30
2022-09-03T20:55:19.848Z,3.00
2022-09-03T21:00:23.770Z,2.40
2022-09-03T21:05:52.691Z,2.90
2022-09-03T21:11:10.159Z,2.50
2022-09-03T21:16:37.893Z,2.30
2022-09-03T21:21:52.733Z,2.60
2022-09-03T21:27:11.199Z,2.40
2022-09-03T21:32:20.426Z,2.40
2022-09-03T21:37:24.664Z,2.60
2022-09-03T21:42:46.261Z,2.20
2022-09-03T21:47:54.016Z,2.20
2022-09-03T21:53:13.639Z,2.40
2022-09-03T21:58:25.924Z,2.30
2022-09-03T22:03:29.111Z,2.40
2022-09-03T22:08:46.441Z,2.40
2022-09-03T22:13:59.221Z,2.30
2022-09-03T22:19:02.219Z,2.90
2022-09-03T22:24:58.988Z,3.00
2022-09-03T22:30:11.508Z,2.40
2022-09-03T22:35:23.352Z,2.10
2022-09-03T22:40:35.409Z,2.80
2022-09-03T22:46:05.774Z,2.60
2022-09-03T22:51:09.371Z,2.70
2022-09-03T22:56:15.978Z,3.10
2022-09-03T23:01:34.989Z,2.60
2022-09-03T23:06:51.162Z,2.60
2022-09-03T23:12:29.948Z,2.40
2022-09-03T23:17:40.101Z,2.50
2022-09-03T23:22:59.537Z,2.90
2022-09-03T23:28:20.941Z,2.80
2022-09-03T23:33:23.768Z,2.00
2022-09-03T23:39:05.127Z,2.60
2022-09-03T23:44:46.022Z,2.60
2022-09-03T23:50:27.155Z,1.90
2022-09-03T23:55:52.369Z,2.00
